createdAt,value
2023-07-08T00:00:40.430Z,15.60
2023-07-08T00:03:07.227Z,15.20
2023-07-08T00:05:33.853Z,12.10
2023-07-08T00:08:00.508Z,15.50
2023-07-08T00:10:29.279Z,14.40
2023-07-08T00:12:58.125Z,20.90
2023-07-08T00:15:33.200Z,14.10
2023-07-08T00:18:00.920Z,14.20
2023-07-08T00:20:38.500Z,13.40
2023-07-08T00:23:05.769Z,14.30
2023-07-08T00:25:33.513Z,13.60
2023-07-08T00:28:00.001Z,16.50
2023-07-08T00:30:29.254Z,13.50
2023-07-08T00:32:57.219Z,14.70
2023-07-08T00:35:35.247Z,14.30
2023-07-08T00:38:02.997Z,13.90
2023-07-08T00:40:34.372Z,12.60
2023-07-08T00:43:04.633Z,15.10
2023-07-08T00:46:02.106Z,18.90
2023-07-08T00:48:35.632Z,15.30
2023-07-08T00:51:02.705Z,13.60
2023-07-08T00:53:30.714Z,12.90
2023-07-08T00:56:20.185Z,14.10
2023-07-08T00:58:52.370Z,10.90
2023-07-08T01:01:19.493Z,15.30
2023-07-08T01:03:55.482Z,12.70
2023-07-08T01:06:24.208Z,12.50
2023-07-08T01:08:51.815Z,16.00
2023-07-08T01:11:18.562Z,13.40
2023-07-08T01:13:45.668Z,13.90
2023-07-08T01:16:12.332Z,13.80
2023-07-08T01:18:39.883Z,14.00
2023-07-08T01:21:29.450Z,12.70
2023-07-08T01:23:56.201Z,14.50
2023-07-08T01:26:25.199Z,14.00
2023-07-08T01:28:53.606Z,17.40
2023-07-08T01:31:20.620Z,14.30
2023-07-08T01:33:47.292Z,16.10
2023-07-08T01:36:14.099Z,12.00
2023-07-08T01:38:41.912Z,15.00
2023-07-08T01:41:13.538Z,13.60
2023-07-08T01:43:40.231Z,14.20
2023-07-08T01:46:16.849Z,13.20
2023-07-08T01:48:49.412Z,16.50
2023-07-08T01:51:16.156Z,13.10
2023-07-08T01:53:44.592Z,15.50
2023-07-08T01:56:13.650Z,14.60
2023-07-08T01:58:40.508Z,16.30
2023-07-08T02:01:08.061Z,16.30
2023-07-08T02:03:35.317Z,15.50
2023-07-08T02:06:02.509Z,15.10
2023-07-08T02:08:29.028Z,12.70
2023-07-08T02:11:00.292Z,12.10
2023-07-08T02:13:27.784Z,13.20
2023-07-08T02:15:54.515Z,13.80
2023-07-08T02:18:21.242Z,14.40
2023-07-08T02:20:48.379Z,13.50
2023-07-08T02:23:15.929Z,14.50
2023-07-08T02:25:42.700Z,12.10
2023-07-08T02:28:09.163Z,14.10
2023-07-08T02:30:35.676Z,15.10
2023-07-08T02:33:02.197Z,14.80
2023-07-08T02:35:31.161Z,15.50
2023-07-08T02:37:58.968Z,14.40
2023-07-08T02:40:26.610Z,15.10
2023-07-08T02:42:53.845Z,14.60
2023-07-08T02:45:20.596Z,15.70
2023-07-08T02:47:47.249Z,15.20
2023-07-08T02:50:14.137Z,15.70
2023-07-08T02:52:40.817Z,15.80
2023-07-08T02:55:08.415Z,14.30
2023-07-08T02:57:35.166Z,14.30
2023-07-08T03:00:01.937Z,13.90
2023-07-08T03:02:28.573Z,13.60
2023-07-08T03:04:55.273Z,14.80
2023-07-08T03:07:25.050Z,14.40
2023-07-08T03:09:51.899Z,12.50
2023-07-08T03:12:18.397Z,18.40
2023-07-08T03:14:44.950Z,14.10
2023-07-08T03:17:11.547Z,12.50
2023-07-08T03:19:38.287Z,13.60
2023-07-08T03:22:05.133Z,13.20
2023-07-08T03:24:31.696Z,10.40
2023-07-08T03:26:58.303Z,11.70
2023-07-08T03:29:24.962Z,9.30
2023-07-08T03:31:51.614Z,7.40
2023-07-08T03:34:18.767Z,11.30
2023-07-08T03:36:51.248Z,8.80
2023-07-08T03:39:23.509Z,9.60
2023-07-08T03:41:52.998Z,7.90
2023-07-08T03:44:20.092Z,10.10
2023-07-08T03:46:49.303Z,7.50
2023-07-08T03:49:17.326Z,6.60
2023-07-08T03:51:44.340Z,9.30
2023-07-08T03:54:13.540Z,6.60
2023-07-08T03:56:40.480Z,6.40
2023-07-08T03:59:06.991Z,8.10
2023-07-08T04:01:33.517Z,8.20
2023-07-08T04:04:01.236Z,8.80
2023-07-08T04:06:28.611Z,8.00
2023-07-08T04:08:55.752Z,6.20
2023-07-08T04:11:24.328Z,7.30
2023-07-08T04:13:51.746Z,9.10
2023-07-08T04:16:22.038Z,9.00
2023-07-08T04:18:49.448Z,7.80
2023-07-08T04:23:47.099Z,6.30
2023-07-08T04:26:13.929Z,8.00
2023-07-08T04:28:40.430Z,9.70
2023-07-08T04:31:07.038Z,6.40
2023-07-08T04:33:33.904Z,9.00
2023-07-08T04:36:00.446Z,6.30
2023-07-08T04:38:27.683Z,7.60
2023-07-08T04:40:55.450Z,6.80
2023-07-08T04:43:22.565Z,8.00
2023-07-08T04:45:52.163Z,5.20
2023-07-08T04:48:20.548Z,6.90
2023-07-08T04:50:49.668Z,7.70
2023-07-08T04:53:16.882Z,6.40
2023-07-08T04:55:51.353Z,6.70
2023-07-08T04:58:17.884Z,6.90
2023-07-08T05:00:44.588Z,7.90
2023-07-08T05:03:11.230Z,7.00
2023-07-08T05:05:37.746Z,6.70
2023-07-08T05:08:04.706Z,8.70
2023-07-08T05:10:31.622Z,7.80
2023-07-08T05:12:58.096Z,7.70
2023-07-08T05:15:24.701Z,5.20
2023-07-08T05:17:52.246Z,8.00
2023-07-08T05:20:19.361Z,6.20
2023-07-08T05:22:46.907Z,6.00
2023-07-08T05:25:14.439Z,6.00
2023-07-08T05:27:41.403Z,5.50
2023-07-08T05:30:17.151Z,7.90
2023-07-08T05:32:43.758Z,7.00
2023-07-08T05:35:11.061Z,7.10
2023-07-08T05:37:38.445Z,7.30
2023-07-08T05:40:06.137Z,8.40
2023-07-08T05:42:33.019Z,5.40
2023-07-08T05:44:59.985Z,6.20
2023-07-08T05:47:27.289Z,8.70
2023-07-08T05:49:53.825Z,7.60
2023-07-08T05:52:20.617Z,7.50
2023-07-08T05:54:47.115Z,5.70
2023-07-08T05:57:13.681Z,6.50
2023-07-08T05:59:40.205Z,7.50
2023-07-08T06:02:08.131Z,9.30
2023-07-08T06:04:34.994Z,8.20
2023-07-08T06:07:01.540Z,5.80
2023-07-08T06:09:28.488Z,4.60
2023-07-08T06:11:55.122Z,5.60
2023-07-08T06:14:21.816Z,5.90
2023-07-08T06:16:48.561Z,6.40
2023-07-08T06:19:15.320Z,6.40
2023-07-08T06:21:42.070Z,5.70
2023-07-08T06:24:08.582Z,7.50
2023-07-08T06:26:35.777Z,6.10
2023-07-08T06:29:02.808Z,8.60
2023-07-08T06:31:29.856Z,4.80
2023-07-08T06:33:56.705Z,5.20
2023-07-08T06:36:23.444Z,6.50
2023-07-08T06:38:50.229Z,7.10
2023-07-08T06:41:16.879Z,5.30
2023-07-08T06:43:43.382Z,4.60
2023-07-08T06:46:10.016Z,7.20
2023-07-08T06:48:36.941Z,7.20
2023-07-08T06:51:03.596Z,5.90
2023-07-08T06:53:30.109Z,10.60
2023-07-08T06:55:56.657Z,6.30
2023-07-08T06:58:23.200Z,5.90
2023-07-08T07:00:49.711Z,5.10
2023-07-08T07:03:16.374Z,6.40
2023-07-08T07:05:44.523Z,5.90
2023-07-08T07:08:10.998Z,5.40
2023-07-08T07:10:37.961Z,5.10
2023-07-08T07:13:04.837Z,4.70
2023-07-08T07:15:31.554Z,6.30
2023-07-08T07:17:58.695Z,5.60
2023-07-08T07:20:26.502Z,6.40
2023-07-08T07:22:53.996Z,4.20
2023-07-08T07:25:20.877Z,6.10
2023-07-08T07:27:47.987Z,6.30
2023-07-08T07:30:14.893Z,7.10
2023-07-08T07:32:42.541Z,4.20
2023-07-08T07:35:11.508Z,5.10
2023-07-08T07:37:38.013Z,14.00
2023-07-08T07:40:05.066Z,4.60
2023-07-08T07:42:31.587Z,8.40
2023-07-08T07:44:58.146Z,4.80
2023-07-08T07:47:24.721Z,4.80
2023-07-08T07:49:51.423Z,4.90
2023-07-08T07:52:18.060Z,5.50
2023-07-08T07:54:44.557Z,5.90
2023-07-08T07:57:11.242Z,5.80
2023-07-08T07:59:37.849Z,5.50
2023-07-08T08:02:04.889Z,3.80
2023-07-08T08:04:31.695Z,5.20
2023-07-08T08:06:58.165Z,5.70
2023-07-08T08:09:24.798Z,4.50
2023-07-08T08:11:51.420Z,5.70
2023-07-08T08:14:17.988Z,5.80
2023-07-08T08:16:44.596Z,5.20
2023-07-08T08:19:11.462Z,7.00
2023-07-08T08:21:38.021Z,6.20
2023-07-08T08:24:05.334Z,4.10
2023-07-08T08:26:32.084Z,5.70
2023-07-08T08:28:58.632Z,4.80
2023-07-08T08:31:25.372Z,4.70
2023-07-08T08:33:53.361Z,4.60
2023-07-08T08:36:20.735Z,4.10
2023-07-08T08:38:47.928Z,4.10
2023-07-08T08:41:20.623Z,7.00
2023-07-08T08:43:49.282Z,6.50
2023-07-08T08:46:40.617Z,5.80
2023-07-08T08:49:22.305Z,4.20
2023-07-08T08:51:50.074Z,5.70
2023-07-08T08:54:16.668Z,4.30
2023-07-08T08:57:08.259Z,4.80
2023-07-08T08:59:44.226Z,5.60
2023-07-08T09:02:26.492Z,8.50
2023-07-08T09:04:53.128Z,5.30
2023-07-08T09:07:21.664Z,4.90
2023-07-08T09:10:05.782Z,5.50
2023-07-08T09:12:35.252Z,5.80
2023-07-08T09:15:13.139Z,5.00
2023-07-08T09:17:39.812Z,5.40
2023-07-08T09:20:27.581Z,3.60
2023-07-08T09:23:16.889Z,6.40
2023-07-08T09:26:12.663Z,3.50
2023-07-08T09:28:41.614Z,5.60
2023-07-08T09:31:13.270Z,4.20
2023-07-08T09:33:40.084Z,5.40
2023-07-08T09:36:19.492Z,4.70
2023-07-08T09:38:50.428Z,7.40
2023-07-08T09:41:31.225Z,6.30
2023-07-08T09:44:17.796Z,6.50
2023-07-08T09:46:45.418Z,4.40
2023-07-08T09:49:35.260Z,4.40
2023-07-08T09:52:03.647Z,5.20
2023-07-08T09:54:31.730Z,4.40
2023-07-08T09:57:03.036Z,6.20
2023-07-08T09:59:32.800Z,6.70
2023-07-08T10:02:05.188Z,7.20
2023-07-08T10:04:31.914Z,6.20
2023-07-08T10:07:01.263Z,6.40
2023-07-08T10:09:27.952Z,6.20
2023-07-08T10:12:05.837Z,4.70
2023-07-08T10:14:44.187Z,4.50
2023-07-08T10:17:17.739Z,4.70
2023-07-08T10:19:44.262Z,4.20
2023-07-08T10:22:32.919Z,4.40
2023-07-08T10:25:29.447Z,5.60
2023-07-08T10:28:14.147Z,5.10
2023-07-08T10:31:00.818Z,7.40
2023-07-08T10:33:59.944Z,6.30
2023-07-08T10:37:14.173Z,4.70
2023-07-08T10:39:49.517Z,3.30
2023-07-08T10:42:29.019Z,5.20
2023-07-08T10:45:16.417Z,3.50
2023-07-08T10:48:12.771Z,4.60
2023-07-08T10:51:21.704Z,5.90
2023-07-08T10:54:07.916Z,3.10
2023-07-08T10:57:10.252Z,3.10
2023-07-08T10:59:39.566Z,5.20
2023-07-08T11:02:27.557Z,3.00
2023-07-08T11:05:22.771Z,2.90
2023-07-08T11:08:10.189Z,4.40
2023-07-08T11:10:47.139Z,5.90
2023-07-08T11:13:18.995Z,5.80
2023-07-08T11:16:11.281Z,5.10
2023-07-08T11:18:49.984Z,2.90
2023-07-08T11:21:28.413Z,5.50
2023-07-08T11:24:06.102Z,4.20
2023-07-08T11:26:45.400Z,6.50
2023-07-08T11:29:26.239Z,3.00
2023-07-08T11:31:55.337Z,4.60
2023-07-08T11:34:23.210Z,2.70
2023-07-08T11:36:52.106Z,3.30
2023-07-08T11:39:31.021Z,5.00
2023-07-08T11:42:22.577Z,3.60
2023-07-08T11:44:54.248Z,2.80
2023-07-08T11:47:33.925Z,2.50
2023-07-08T11:50:02.614Z,4.30
2023-07-08T11:52:31.060Z,3.40
2023-07-08T11:55:04.245Z,2.60
2023-07-08T11:57:38.480Z,3.00
2023-07-08T12:00:19.900Z,2.20
2023-07-08T12:02:54.104Z,3.80
2023-07-08T12:05:32.098Z,3.50
2023-07-08T12:07:59.683Z,2.90
2023-07-08T12:10:41.189Z,4.00
2023-07-08T12:13:14.825Z,2.90
2023-07-08T12:15:42.321Z,5.70
2023-07-08T12:18:14.904Z,3.70
2023-07-08T12:20:43.022Z,2.30
2023-07-08T12:23:16.869Z,4.40
2023-07-08T12:25:43.649Z,2.90
2023-07-08T12:28:12.113Z,3.10
2023-07-08T12:30:39.543Z,3.50
2023-07-08T12:33:23.212Z,5.30
2023-07-08T12:35:49.904Z,3.10
2023-07-08T12:38:27.263Z,5.80
2023-07-08T12:40:53.898Z,5.10
2023-07-08T12:43:20.710Z,2.70
2023-07-08T12:45:47.782Z,2.60
2023-07-08T12:48:14.310Z,3.10
2023-07-08T12:50:40.992Z,3.00
2023-07-08T12:53:07.798Z,3.70
2023-07-08T12:55:34.591Z,3.70
2023-07-08T12:58:02.570Z,3.30
2023-07-08T13:00:32.340Z,5.00
2023-07-08T13:03:09.527Z,3.40
2023-07-08T13:05:36.618Z,2.80
2023-07-08T13:08:03.396Z,3.10
2023-07-08T13:10:30.819Z,2.80
2023-07-08T13:13:01.739Z,2.50
2023-07-08T13:15:39.902Z,3.00
2023-07-08T13:18:15.302Z,2.90
2023-07-08T13:20:42.361Z,4.10
2023-07-08T13:23:09.842Z,2.60
2023-07-08T13:25:39.420Z,3.20
2023-07-08T13:30:58.861Z,4.20
2023-07-08T13:33:30.850Z,3.00
2023-07-08T13:35:57.505Z,5.10
2023-07-08T13:38:27.331Z,4.60
2023-07-08T13:40:57.050Z,3.00
2023-07-08T13:43:29.529Z,2.20
2023-07-08T13:45:56.829Z,2.60
2023-07-08T13:48:40.054Z,2.60
2023-07-08T13:51:23.688Z,3.20
2023-07-08T13:53:53.295Z,3.40
2023-07-08T13:56:28.608Z,2.90
2023-07-08T13:59:07.250Z,2.20
2023-07-08T14:01:36.887Z,5.60
2023-07-08T14:04:04.335Z,5.10
2023-07-08T14:06:35.405Z,4.00
2023-07-08T14:09:20.149Z,2.80
2023-07-08T14:11:48.185Z,2.60
2023-07-08T14:14:15.366Z,3.80
2023-07-08T14:16:45.168Z,4.40
2023-07-08T14:19:33.219Z,4.50
2023-07-08T14:22:14.337Z,3.50
2023-07-08T14:24:44.250Z,2.90
2023-07-08T14:27:11.887Z,4.50
2023-07-08T14:29:39.751Z,2.40
2023-07-08T14:32:13.961Z,3.20
2023-07-08T14:34:42.846Z,3.10
2023-07-08T14:37:15.488Z,2.30
2023-07-08T14:39:42.228Z,6.20
2023-07-08T14:42:12.450Z,8.60
2023-07-08T14:44:40.480Z,3.90
2023-07-08T14:47:15.233Z,2.70
2023-07-08T14:49:42.389Z,2.90
2023-07-08T14:52:09.998Z,2.10
2023-07-08T14:54:37.206Z,4.20
2023-07-08T14:57:05.707Z,6.00
2023-07-08T14:59:35.226Z,4.30
2023-07-08T15:02:16.222Z,2.30
2023-07-08T15:04:42.708Z,2.70
2023-07-08T15:07:10.075Z,3.30
2023-07-08T15:09:36.623Z,3.00
2023-07-08T15:12:03.483Z,5.10
2023-07-08T15:14:30.439Z,4.20
2023-07-08T15:16:57.274Z,5.30
2023-07-08T15:19:25.421Z,4.40
2023-07-08T15:21:52.116Z,4.00
2023-07-08T15:24:19.211Z,3.50
2023-07-08T15:26:48.306Z,3.40
2023-07-08T15:29:24.379Z,2.70
2023-07-08T15:31:51.722Z,23.20
2023-07-08T15:34:22.595Z,2.60
2023-07-08T15:36:49.544Z,11.50
2023-07-08T15:39:16.593Z,12.70
2023-07-08T15:41:44.407Z,28.90
2023-07-08T15:44:13.234Z,2.70
2023-07-08T15:49:19.885Z,2.20
2023-07-08T15:51:49.802Z,4.20
2023-07-08T15:54:18.944Z,5.60
2023-07-08T15:59:20.823Z,3.10
2023-07-08T16:01:47.394Z,3.00
2023-07-08T16:04:22.694Z,2.90
2023-07-08T16:06:49.224Z,4.50
2023-07-08T16:09:15.765Z,6.50
2023-07-08T16:11:43.222Z,2.80
2023-07-08T16:14:15.083Z,7.30
2023-07-08T16:16:43.480Z,9.20
2023-07-08T16:19:15.216Z,3.10
2023-07-08T16:21:42.567Z,2.40
2023-07-08T16:24:09.224Z,6.90
2023-07-08T16:26:36.825Z,5.40
2023-07-08T16:29:04.088Z,3.80
2023-07-08T16:31:31.279Z,4.80
2023-07-08T16:33:58.114Z,5.70
2023-07-08T16:36:27.455Z,3.60
2023-07-08T16:38:55.004Z,3.80
2023-07-08T16:41:29.857Z,5.20
2023-07-08T16:43:56.776Z,4.30
2023-07-08T16:46:23.694Z,4.70
2023-07-08T16:48:50.247Z,5.00
2023-07-08T16:51:19.412Z,10.40
2023-07-08T16:53:46.495Z,4.60
2023-07-08T16:56:14.464Z,3.20
2023-07-08T16:58:40.977Z,4.40
2023-07-08T17:01:18.699Z,4.30
2023-07-08T17:03:45.247Z,3.60
2023-07-08T17:06:11.759Z,6.70
2023-07-08T17:08:38.332Z,5.60
2023-07-08T17:11:05.018Z,4.70
2023-07-08T17:13:32.314Z,5.00
2023-07-08T17:15:59.136Z,3.70
2023-07-08T17:18:26.336Z,5.80
2023-07-08T17:20:54.154Z,3.00
2023-07-08T17:23:22.810Z,4.60
2023-07-08T17:25:49.690Z,7.80
2023-07-08T17:28:16.747Z,8.20
2023-07-08T17:30:47.770Z,12.10
2023-07-08T17:33:16.997Z,5.30
2023-07-08T17:35:43.944Z,2.70
2023-07-08T17:38:15.117Z,6.40
2023-07-08T17:40:41.706Z,5.30
2023-07-08T17:43:09.494Z,7.30
2023-07-08T17:45:40.433Z,5.80
2023-07-08T17:48:24.466Z,4.20
2023-07-08T17:50:53.711Z,4.80
2023-07-08T17:53:21.280Z,8.20
2023-07-08T17:55:51.104Z,6.70
2023-07-08T17:58:18.351Z,6.50
2023-07-08T18:00:45.094Z,7.30
2023-07-08T18:03:12.366Z,5.80
2023-07-08T18:05:39.117Z,4.50
2023-07-08T18:08:05.661Z,6.40
2023-07-08T18:10:32.882Z,5.60
2023-07-08T18:13:01.587Z,8.70
2023-07-08T18:15:39.153Z,10.60
2023-07-08T18:18:05.974Z,7.70
2023-07-08T18:20:38.284Z,8.50
2023-07-08T18:23:10.886Z,9.20
2023-07-08T18:25:37.649Z,9.30
2023-07-08T18:28:04.286Z,10.30
2023-07-08T18:30:31.023Z,11.00
2023-07-08T18:32:57.708Z,14.10
2023-07-08T18:35:30.325Z,18.60
2023-07-08T18:37:57.720Z,14.50
2023-07-08T18:40:32.930Z,13.40
2023-07-08T18:43:11.379Z,13.60
2023-07-08T18:45:37.922Z,17.80
2023-07-08T18:48:05.020Z,14.80
2023-07-08T18:50:31.723Z,16.90
2023-07-08T18:52:58.270Z,18.00
2023-07-08T18:55:26.032Z,22.90
2023-07-08T18:57:55.760Z,23.10
2023-07-08T19:00:22.820Z,22.10
2023-07-08T19:03:00.553Z,17.20
2023-07-08T19:05:27.828Z,16.80
2023-07-08T19:07:55.238Z,17.30
2023-07-08T19:10:28.597Z,16.20
2023-07-08T19:12:55.348Z,14.50
2023-07-08T19:15:29.809Z,12.90
2023-07-08T19:17:57.384Z,14.00
2023-07-08T19:20:31.232Z,13.40
2023-07-08T19:22:57.837Z,11.90
2023-07-08T19:25:26.478Z,14.00
2023-07-08T19:27:54.213Z,12.40
2023-07-08T19:30:21.045Z,19.40
2023-07-08T19:32:55.430Z,15.60
2023-07-08T19:35:24.070Z,19.00
2023-07-08T19:37:51.690Z,15.60
2023-07-08T19:40:23.280Z,14.60
2023-07-08T19:42:52.519Z,23.00
2023-07-08T19:45:27.441Z,25.30
2023-07-08T19:47:55.841Z,19.50
2023-07-08T19:50:25.194Z,17.60
2023-07-08T19:52:52.509Z,22.00
2023-07-08T19:55:19.595Z,19.10
2023-07-08T19:57:48.068Z,18.40
2023-07-08T20:00:22.444Z,17.20
2023-07-08T20:02:53.737Z,18.60
2023-07-08T20:05:23.303Z,17.50
2023-07-08T20:07:50.103Z,22.20
2023-07-08T20:10:18.911Z,18.60
2023-07-08T20:12:46.266Z,17.20
2023-07-08T20:15:13.246Z,18.80
2023-07-08T20:17:40.758Z,18.70
2023-07-08T20:20:28.776Z,17.60
2023-07-08T20:22:56.104Z,21.00
2023-07-08T20:25:24.638Z,19.10
2023-07-08T20:27:53.599Z,25.10
2023-07-08T20:30:29.245Z,20.60
2023-07-08T20:32:57.874Z,22.00
2023-07-08T20:35:29.083Z,21.60
2023-07-08T20:37:56.243Z,21.70
2023-07-08T20:40:26.231Z,21.50
2023-07-08T20:42:54.023Z,21.40
2023-07-08T20:45:25.601Z,22.50
2023-07-08T20:47:52.500Z,20.60
2023-07-08T20:50:22.204Z,22.80
2023-07-08T20:52:49.779Z,20.60
2023-07-08T20:55:18.118Z,21.50
2023-07-08T20:57:46.337Z,24.50
2023-07-08T21:00:28.179Z,21.50
2023-07-08T21:02:55.837Z,21.20
2023-07-08T21:05:23.769Z,20.50
2023-07-08T21:07:50.366Z,19.20
2023-07-08T21:10:19.439Z,20.20
2023-07-08T21:12:47.021Z,19.70
2023-07-08T21:15:15.971Z,20.00
2023-07-08T21:17:43.851Z,16.40
2023-07-08T21:20:21.738Z,17.80
2023-07-08T21:22:49.040Z,22.40
2023-07-08T21:25:17.534Z,20.40
2023-07-08T21:27:45.755Z,19.40
2023-07-08T21:30:21.328Z,22.10
2023-07-08T21:32:48.947Z,18.70
2023-07-08T21:35:16.428Z,20.20
2023-07-08T21:37:51.569Z,21.70
2023-07-08T21:40:36.469Z,20.40
2023-07-08T21:43:11.991Z,25.20
2023-07-08T21:45:40.250Z,21.70
2023-07-08T21:48:09.038Z,22.30
2023-07-08T21:51:00.543Z,19.70
2023-07-08T21:53:36.831Z,19.70
2023-07-08T21:56:04.911Z,19.70
2023-07-08T21:58:31.796Z,24.20
2023-07-08T22:00:58.368Z,22.80
2023-07-08T22:03:28.014Z,21.60
2023-07-08T22:05:56.261Z,19.90
2023-07-08T22:08:26.084Z,20.20
2023-07-08T22:10:58.513Z,19.40
2023-07-08T22:13:27.553Z,19.80
2023-07-08T22:15:56.256Z,20.50
2023-07-08T22:18:23.536Z,20.90
2023-07-08T22:20:52.056Z,21.50
2023-07-08T22:23:19.779Z,20.70
2023-07-08T22:25:46.993Z,18.30
2023-07-08T22:28:13.678Z,18.70
2023-07-08T22:30:41.691Z,22.50
2023-07-08T22:33:13.102Z,20.30
2023-07-08T22:35:40.866Z,17.50
2023-07-08T22:38:08.526Z,21.60
2023-07-08T22:40:39.672Z,20.30
2023-07-08T22:43:09.642Z,19.90
2023-07-08T22:45:36.108Z,16.70
2023-07-08T22:48:02.902Z,16.80
2023-07-08T22:50:31.438Z,18.00
2023-07-08T22:52:58.537Z,19.30
2023-07-08T22:55:29.992Z,18.40
2023-07-08T22:58:00.334Z,15.40
2023-07-08T23:00:28.402Z,17.20
2023-07-08T23:02:55.078Z,15.00
2023-07-08T23:05:26.707Z,17.50
2023-07-08T23:07:53.330Z,18.20
2023-07-08T23:10:20.347Z,18.40
2023-07-08T23:12:47.179Z,17.10
2023-07-08T23:15:14.218Z,14.50
2023-07-08T23:17:43.449Z,14.00
2023-07-08T23:20:21.229Z,15.20
2023-07-08T23:22:47.782Z,17.90
2023-07-08T23:25:14.712Z,14.70
2023-07-08T23:27:42.502Z,14.90
2023-07-08T23:30:19.684Z,14.50
2023-07-08T23:32:46.868Z,19.20
2023-07-08T23:35:13.588Z,17.80
2023-07-08T23:37:41.810Z,15.20
2023-07-08T23:40:16.757Z,14.30
2023-07-08T23:42:44.493Z,16.10
2023-07-08T23:45:13.802Z,16.50
2023-07-08T23:47:42.096Z,16.00
2023-07-08T23:50:19.186Z,16.80
2023-07-08T23:52:45.921Z,13.00
2023-07-08T23:55:12.591Z,14.40
2023-07-08T23:57:39.776Z,12.10
